Time;durP1;ratioP1;P1;durP2;ratioP2;P2;SDS_P1;SDS_P2;PMS_P1;PMS_P2;Temp;Humidity;BMP_temperature;BMP_pressure;BME280_temperature;BME280_humidity;BME280_pressure;Samples;Min_cycle;Max_cycle;Signal;HPM_P1;HPM_P2
2022/03/15 00:00:58;;;;;;;6.73;2.37;;;12.30;1.00;;;;;;5081893;28;20465;-79
2022/03/15 00:03:27;;;;;;;5.73;2.13;;;12.10;1.00;;;;;;5083058;28;20457;-80
2022/03/15 00:05:55;;;;;;;3.47;1.70;;;12.10;1.00;;;;;;5085816;28;20485;-80
2022/03/15 00:08:23;;;;;;;3.70;2.17;;;12.20;1.00;;;;;;5078923;28;20478;-79
2022/03/15 00:10:54;;;;;;;7.07;1.93;;;12.30;1.00;;;;;;5075263;28;20457;-78
2022/03/15 00:13:23;;;;;;;3.17;1.80;;;12.40;1.00;;;;;;5077606;28;20490;-79
2022/03/15 00:15:51;;;;;;;2.63;1.70;;;12.50;1.00;;;;;;5082338;28;20458;-78
2022/03/15 00:18:21;;;;;;;3.40;2.23;;;12.40;1.00;;;;;;5081499;28;20478;-78
2022/03/15 00:20:49;;;;;;;3.40;2.10;;;12.50;1.00;;;;;;5082288;28;20980;-78
2022/03/15 00:23:17;;;;;;;3.13;2.40;;;12.40;1.00;;;;;;5083814;28;20457;-79
2022/03/15 00:25:46;;;;;;;5.30;3.53;;;12.30;1.00;;;;;;5077863;28;20451;-79
2022/03/15 00:28:14;;;;;;;7.43;2.30;;;12.30;1.00;;;;;;5084431;28;20473;-79
2022/03/15 00:30:42;;;;;;;7.30;3.30;;;12.20;1.00;;;;;;5082381;28;20454;-78
2022/03/15 00:33:11;;;;;;;4.83;2.43;;;12.20;1.00;;;;;;5082666;28;20463;-79
2022/03/15 00:35:40;;;;;;;3.03;2.37;;;12.20;1.00;;;;;;5076074;28;20534;-78
2022/03/15 00:38:09;;;;;;;2.67;2.27;;;12.20;1.00;;;;;;5079644;28;20451;-79
2022/03/15 00:40:38;;;;;;;4.37;2.37;;;12.30;1.00;;;;;;5077128;28;21016;-79
2022/03/15 00:43:06;;;;;;;4.80;2.20;;;12.30;1.00;;;;;;5085258;28;20500;-78
2022/03/15 00:45:34;;;;;;;2.63;2.30;;;12.20;1.00;;;;;;5081274;28;20454;-78
2022/03/15 00:48:03;;;;;;;2.67;2.47;;;12.20;1.00;;;;;;5080904;28;20461;-79
2022/03/15 00:50:33;;;;;;;4.23;2.33;;;12.10;1.00;;;;;;5078626;28;20442;-78
2022/03/15 00:53:03;;;;;;;3.87;2.63;;;11.90;1.00;;;;;;5084949;28;20438;-78
2022/03/15 00:55:31;;;;;;;6.13;3.40;;;12.00;1.00;;;;;;5085991;28;20458;-78
2022/03/15 00:58:00;;;;;;;3.50;3.20;;;12.10;1.00;;;;;;5085823;28;20453;-78
2022/03/15 01:00:31;;;;;;;3.63;2.13;;;12.10;1.00;;;;;;5080862;28;20454;-78
2022/03/15 01:03:00;;;;;;;2.90;2.10;;;11.90;1.00;;;;;;5079963;28;20782;-77
2022/03/15 01:05:28;;;;;;;3.90;2.53;;;11.80;1.00;;;;;;5084820;28;20449;-77
2022/03/15 01:07:57;;;;;;;8.33;2.20;;;11.80;1.00;;;;;;5080010;28;20450;-78
2022/03/15 01:10:26;;;;;;;3.60;2.43;;;11.90;1.00;;;;;;5082220;28;20446;-77
2022/03/15 01:12:54;;;;;;;2.70;1.97;;;12.00;1.00;;;;;;5083599;28;20457;-77
2022/03/15 01:15:25;;;;;;;6.30;2.70;;;11.90;1.00;;;;;;5074643;28;20867;-78
2022/03/15 01:17:53;;;;;;;6.20;2.67;;;12.00;1.00;;;;;;5078477;28;20553;-77
2022/03/15 01:20:21;;;;;;;5.33;2.07;;;12.00;1.00;;;;;;5079467;28;20450;-77
2022/03/15 01:22:50;;;;;;;1.80;1.70;;;12.10;1.00;;;;;;5083247;28;20509;-76
2022/03/15 01:25:18;;;;;;;6.67;2.37;;;12.20;1.00;;;;;;5076451;28;20430;-77
2022/03/15 01:27:47;;;;;;;3.20;2.30;;;12.10;1.00;;;;;;5083016;28;20445;-77
2022/03/15 01:30:15;;;;;;;4.67;2.23;;;11.80;1.00;;;;;;5074375;28;20503;-77
2022/03/15 01:32:44;;;;;;;3.80;2.20;;;11.70;1.00;;;;;;5081741;28;20459;-77
2022/03/15 01:35:12;;;;;;;5.80;2.20;;;11.80;1.00;;;;;;5084071;28;20466;-77
2022/03/15 01:37:40;;;;;;;4.40;3.17;;;12.00;1.00;;;;;;5078889;28;20515;-78
2022/03/15 01:40:10;;;;;;;2.07;1.60;;;12.10;1.00;;;;;;5082183;28;20481;-77
2022/03/15 01:42:38;;;;;;;2.67;2.30;;;12.10;1.00;;;;;;5083402;28;20457;-78
2022/03/15 01:45:09;;;;;;;3.17;2.30;;;12.00;1.00;;;;;;5081204;28;20455;-77
2022/03/15 01:47:38;;;;;;;3.00;2.20;;;11.90;1.00;;;;;;5079215;28;20556;-78
2022/03/15 01:50:07;;;;;;;2.90;2.20;;;11.90;1.00;;;;;;5085330;28;20522;-78
2022/03/15 01:52:35;;;;;;;4.00;1.93;;;11.80;1.00;;;;;;5087492;28;20521;-77
2022/03/15 01:55:05;;;;;;;7.80;4.80;;;12.00;1.00;;;;;;5088971;28;21362;-79
2022/03/15 01:57:34;;;;;;;3.03;2.10;;;11.80;1.00;;;;;;5081373;28;20469;-77
2022/03/15 02:00:02;;;;;;;2.73;2.20;;;11.90;1.00;;;;;;5081288;28;21309;-79
2022/03/15 02:02:32;;;;;;;1.90;1.77;;;11.90;1.00;;;;;;5083481;28;20842;-78
2022/03/15 02:05:01;;;;;;;3.60;2.30;;;11.90;1.00;;;;;;5085216;28;20449;-78
2022/03/15 02:07:29;;;;;;;1.80;1.70;;;11.90;1.00;;;;;;5081926;28;20490;-79
2022/03/15 02:09:57;;;;;;;4.73;2.33;;;11.90;1.00;;;;;;5087830;28;20561;-79
2022/03/15 02:12:27;;;;;;;2.77;2.00;;;11.90;1.00;;;;;;5080914;28;20445;-79
2022/03/15 02:14:57;;;;;;;2.27;1.70;;;11.90;1.00;;;;;;5083291;28;20483;-78
2022/03/15 02:17:25;;;;;;;2.40;1.77;;;12.00;1.00;;;;;;5081409;28;20461;-79
2022/03/15 02:19:55;;;;;;;3.70;2.47;;;11.90;1.00;;;;;;5084209;28;20535;-78
2022/03/15 02:22:24;;;;;;;7.63;2.20;;;11.90;1.00;;;;;;5078461;28;20450;-79
2022/03/15 02:24:53;;;;;;;4.47;2.37;;;11.90;1.00;;;;;;5080185;28;20451;-79
2022/03/15 02:27:23;;;;;;;2.30;1.73;;;11.90;1.00;;;;;;5079401;28;20455;-77
2022/03/15 02:29:51;;;;;;;2.17;1.50;;;12.00;1.00;;;;;;5080881;28;20480;-79
2022/03/15 02:32:21;;;;;;;3.63;1.73;;;12.00;1.00;;;;;;5085023;28;20454;-78
2022/03/15 02:34:49;;;;;;;2.43;1.70;;;11.90;1.00;;;;;;5080967;28;20523;-78
2022/03/15 02:37:17;;;;;;;2.40;1.87;;;11.60;1.00;;;;;;5081712;28;20513;-79
2022/03/15 02:39:47;;;;;;;4.63;2.20;;;11.40;1.00;;;;;;5083355;28;20485;-78
2022/03/15 02:42:15;;;;;;;3.17;1.70;;;11.50;1.00;;;;;;5084180;28;20449;-78
2022/03/15 02:44:43;;;;;;;2.73;2.17;;;11.50;1.00;;;;;;5081836;28;21110;-77
2022/03/15 02:47:12;;;;;;;2.10;1.90;;;11.70;1.00;;;;;;5086113;28;20461;-78
2022/03/15 02:49:40;;;;;;;2.90;2.27;;;11.60;1.00;;;;;;5081292;28;20816;-77
2022/03/15 02:52:09;;;;;;;2.80;1.60;;;11.60;1.00;;;;;;5078063;28;20442;-78
2022/03/15 02:54:39;;;;;;;5.50;2.47;;;11.70;1.00;;;;;;5085154;28;20499;-78
2022/03/15 02:57:10;;;;;;;2.63;2.03;;;11.70;1.00;;;;;;5086244;28;21010;-78
2022/03/15 02:59:39;;;;;;;4.10;2.00;;;11.60;1.00;;;;;;5077814;28;20470;-78
2022/03/15 03:02:08;;;;;;;3.23;1.93;;;11.90;1.00;;;;;;5076457;28;21095;-78
2022/03/15 03:04:37;;;;;;;3.90;1.70;;;11.50;1.00;;;;;;5082201;28;20468;-80
2022/03/15 03:07:05;;;;;;;2.90;2.00;;;11.70;1.00;;;;;;5087390;28;20941;-78
2022/03/15 03:09:33;;;;;;;3.03;1.93;;;11.70;1.00;;;;;;5092373;28;20479;-79
2022/03/15 03:12:02;;;;;;;2.93;1.83;;;11.60;1.00;;;;;;5075749;28;20500;-78
2022/03/15 03:14:34;;;;;;;2.63;1.80;;;12.00;1.00;;;;;;5084738;28;20443;-78
2022/03/15 03:17:02;;;;;;;4.00;1.60;;;11.80;1.00;;;;;;5077139;28;20465;-78
2022/03/15 03:19:31;;;;;;;2.40;1.70;;;11.80;1.00;;;;;;5081341;28;20479;-77
2022/03/15 03:21:59;;;;;;;2.53;1.80;;;11.60;1.00;;;;;;5085593;28;20472;-77
2022/03/15 03:24:27;;;;;;;3.43;1.80;;;11.50;1.00;;;;;;5083644;28;20446;-78
2022/03/15 03:26:56;;;;;;;2.83;1.90;;;11.50;1.00;;;;;;5088769;28;20921;-78
2022/03/15 03:29:25;;;;;;;6.80;2.53;;;11.40;1.00;;;;;;5084583;28;20567;-77
2022/03/15 03:31:55;;;;;;;2.90;1.90;;;11.60;1.00;;;;;;5085242;28;21133;-78
2022/03/15 03:34:24;;;;;;;1.70;1.60;;;11.60;1.00;;;;;;5080531;28;20466;-78
2022/03/15 03:36:52;;;;;;;2.00;1.63;;;11.60;1.00;;;;;;5085654;28;20494;-78
2022/03/15 03:39:28;;;;;;;2.57;2.37;;;11.60;1.00;;;;;;5083637;28;20474;-78
2022/03/15 03:41:58;;;;;;;4.43;2.13;;;11.50;1.00;;;;;;5086740;28;21423;-78
2022/03/15 03:44:26;;;;;;;1.87;1.67;;;11.40;1.00;;;;;;5085562;28;20449;-78
2022/03/15 03:46:55;;;;;;;2.07;1.70;;;11.30;1.00;;;;;;5084903;28;20442;-79
2022/03/15 03:49:24;;;;;;;2.43;1.97;;;11.30;1.00;;;;;;5082931;28;20466;-79
2022/03/15 03:51:52;;;;;;;6.63;2.37;;;11.50;1.00;;;;;;5083131;28;20485;-79
2022/03/15 03:54:21;;;;;;;3.73;2.30;;;11.60;1.00;;;;;;5077883;28;20504;-78
2022/03/15 03:56:49;;;;;;;7.47;2.70;;;11.90;1.00;;;;;;5082201;28;20475;-78
2022/03/15 03:59:17;;;;;;;3.43;2.47;;;11.40;1.00;;;;;;5082516;28;20496;-78
2022/03/15 04:01:45;;;;;;;3.97;2.53;;;11.30;1.00;;;;;;5081953;28;20469;-77
2022/03/15 04:04:15;;;;;;;7.00;2.10;;;11.20;1.00;;;;;;5081900;28;20461;-77
2022/03/15 04:06:43;;;;;;;2.80;2.03;;;11.10;1.00;;;;;;5082384;28;20473;-80
2022/03/15 04:09:12;;;;;;;5.40;2.30;;;11.10;1.00;;;;;;5077439;28;20480;-78
2022/03/15 04:11:41;;;;;;;6.63;2.00;;;11.40;1.00;;;;;;5080991;28;20456;-78
2022/03/15 04:14:11;;;;;;;1.73;1.63;;;11.20;1.00;;;;;;5084628;28;20450;-78
2022/03/15 04:16:39;;;;;;;6.60;2.40;;;11.40;1.00;;;;;;5087679;28;20514;-80
2022/03/15 04:19:07;;;;;;;5.20;2.70;;;11.50;1.00;;;;;;5086983;28;21020;-77
2022/03/15 04:21:37;;;;;;;4.43;3.27;;;11.60;1.00;;;;;;5084206;28;20458;-79
2022/03/15 04:24:06;;;;;;;7.03;3.00;;;11.50;1.00;;;;;;5084399;28;21017;-79
2022/03/15 04:26:34;;;;;;;5.40;2.43;;;11.50;1.00;;;;;;5080905;28;21097;-78
2022/03/15 04:29:03;;;;;;;3.07;2.17;;;11.30;1.00;;;;;;5082911;28;20835;-79
2022/03/15 04:31:31;;;;;;;2.63;2.43;;;11.30;1.00;;;;;;5083126;28;21007;-81
2022/03/15 04:33:59;;;;;;;7.50;2.73;;;11.30;1.00;;;;;;5079283;28;20449;-79
2022/03/15 04:36:27;;;;;;;3.60;2.20;;;11.40;1.00;;;;;;5075317;28;20949;-80
2022/03/15 04:38:58;;;;;;;2.80;2.27;;;11.30;1.00;;;;;;5080585;28;20480;-79
2022/03/15 04:41:27;;;;;;;2.77;2.13;;;11.20;1.00;;;;;;5083321;28;20453;-78
2022/03/15 04:43:55;;;;;;;2.90;2.60;;;11.20;1.00;;;;;;5076890;28;20485;-78
2022/03/15 04:46:24;;;;;;;4.00;2.20;;;11.30;1.00;;;;;;5079780;28;20469;-78
2022/03/15 04:48:53;;;;;;;4.30;2.40;;;11.30;1.00;;;;;;5078032;28;20478;-79
2022/03/15 04:51:22;;;;;;;3.43;3.13;;;11.40;1.00;;;;;;5082788;28;20211;-79
2022/03/15 04:53:51;;;;;;;3.97;2.50;;;11.50;1.00;;;;;;5085250;28;20947;-79
2022/03/15 04:56:21;;;;;;;5.00;2.13;;;11.30;1.00;;;;;;5075822;28;20500;-78
2022/03/15 04:58:49;;;;;;;3.27;2.40;;;11.10;1.00;;;;;;5083502;28;20523;-77
2022/03/15 05:01:17;;;;;;;3.67;1.80;;;11.20;1.00;;;;;;5076511;28;20453;-77
2022/03/15 05:03:45;;;;;;;2.43;2.10;;;11.30;1.00;;;;;;5087617;28;20453;-78
2022/03/15 05:06:14;;;;;;;4.00;2.00;;;11.40;1.00;;;;;;5079937;28;20464;-78
2022/03/15 05:08:42;;;;;;;4.33;2.30;;;11.50;1.00;;;;;;5081085;28;20482;-77
2022/03/15 05:11:09;;;;;;;2.53;2.10;;;11.50;1.00;;;;;;5084751;28;20526;-78
2022/03/15 05:13:42;;;;;;;4.20;2.60;;;11.70;1.00;;;;;;5081253;28;21149;-77
2022/03/15 05:16:16;;;;;;;5.23;2.83;;;11.20;1.00;;;;;;5081714;28;20980;-78
2022/03/15 05:18:45;;;;;;;3.97;2.70;;;11.00;1.00;;;;;;5037940;28;1127244;-77
2022/03/15 05:21:16;;;;;;;4.53;2.70;;;11.10;1.00;;;;;;5079314;28;20437;-78
2022/03/15 05:23:45;;;;;;;3.60;2.30;;;11.40;1.00;;;;;;5080553;28;20446;-78
2022/03/15 05:26:15;;;;;;;2.73;2.10;;;11.20;1.00;;;;;;5079302;28;20445;-78
2022/03/15 05:28:45;;;;;;;3.10;2.47;;;11.20;1.00;;;;;;5078186;28;20475;-78
2022/03/15 05:31:13;;;;;;;5.20;2.27;;;11.20;1.00;;;;;;5079534;28;20550;-77
2022/03/15 05:33:43;;;;;;;5.87;5.30;;;11.10;1.00;;;;;;5075983;28;20465;-76
2022/03/15 05:36:11;;;;;;;4.03;3.63;;;11.00;1.00;;;;;;5081013;28;20479;-77
2022/03/15 05:38:40;;;;;;;2.03;1.83;;;11.10;1.00;;;;;;5080766;28;20486;-76
2022/03/15 05:41:08;;;;;;;4.63;2.30;;;11.10;1.00;;;;;;5075712;28;20445;-76
2022/03/15 05:43:55;;;;;;;2.00;1.80;;;11.10;1.00;;;;;;5077453;28;20521;-75
2022/03/15 05:46:23;;;;;;;6.20;2.27;;;11.30;1.00;;;;;;5076676;28;20544;-77
2022/03/15 05:48:52;;;;;;;2.77;1.90;;;11.60;1.00;;;;;;5076456;28;20554;-76
2022/03/15 05:51:20;;;;;;;3.50;1.80;;;11.40;1.00;;;;;;5079470;28;20545;-77
2022/03/15 05:53:49;;;;;;;2.97;1.80;;;11.40;1.00;;;;;;5079884;28;20458;-76
2022/03/15 05:56:17;;;;;;;2.73;2.07;;;11.50;1.00;;;;;;5079344;28;20889;-77
2022/03/15 05:58:46;;;;;;;2.40;1.77;;;11.60;1.00;;;;;;5079414;28;20495;-76
2022/03/15 06:01:16;;;;;;;1.87;1.77;;;11.50;1.00;;;;;;5078599;28;20458;-76
2022/03/15 06:03:45;;;;;;;2.10;1.70;;;11.30;1.00;;;;;;5081748;28;20476;-77
2022/03/15 06:06:13;;;;;;;3.50;2.00;;;11.20;1.00;;;;;;5080093;28;20909;-77
2022/03/15 06:08:41;;;;;;;3.33;2.20;;;11.20;1.00;;;;;;5076443;28;20474;-77
2022/03/15 06:11:11;;;;;;;2.70;1.80;;;11.30;1.00;;;;;;5075260;28;20998;-76
2022/03/15 06:13:39;;;;;;;5.33;1.77;;;11.30;1.00;;;;;;5076964;28;20465;-77
2022/03/15 06:16:07;;;;;;;1.73;1.43;;;11.30;1.00;;;;;;5075602;28;20450;-76
2022/03/15 06:18:37;;;;;;;3.08;2.47;;;11.40;1.00;;;;;;5073918;28;20455;-78
2022/03/15 06:21:05;;;;;;;5.57;1.83;;;11.40;1.00;;;;;;5081204;28;20209;-76
2022/03/15 06:23:33;;;;;;;3.30;1.73;;;11.20;1.00;;;;;;5084117;28;21131;-77
2022/03/15 06:26:08;;;;;;;2.10;1.90;;;11.10;1.00;;;;;;5086844;28;20449;-77
2022/03/15 06:28:37;;;;;;;5.00;1.67;;;11.10;1.00;;;;;;5089809;28;20465;-77
2022/03/15 06:31:07;;;;;;;1.50;1.40;;;11.20;1.00;;;;;;5092484;28;20495;-76
2022/03/15 06:33:36;;;;;;;4.90;1.90;;;11.10;1.00;;;;;;5092123;28;20449;-76
2022/03/15 06:36:11;;;;;;;2.57;1.90;;;11.10;1.00;;;;;;5090590;28;20875;-77
2022/03/15 06:38:40;;;;;;;2.73;1.70;;;11.00;1.00;;;;;;5077202;28;20506;-77
2022/03/15 06:41:13;;;;;;;5.03;1.90;;;11.20;1.00;;;;;;5088710;28;20455;-76
2022/03/15 06:43:41;;;;;;;2.40;2.07;;;11.30;1.00;;;;;;5084865;28;20591;-77
2022/03/15 06:46:10;;;;;;;2.40;1.63;;;11.40;1.00;;;;;;5089498;28;20452;-77
2022/03/15 06:48:39;;;;;;;1.90;1.47;;;11.20;1.00;;;;;;5078808;28;20470;-78
2022/03/15 06:51:08;;;;;;;3.87;1.53;;;11.20;1.00;;;;;;5091426;28;20516;-78
2022/03/15 06:53:36;;;;;;;2.23;1.80;;;11.30;1.00;;;;;;5090481;28;20453;-77
2022/03/15 06:56:04;;;;;;;1.60;1.40;;;11.30;1.00;;;;;;5089741;28;20442;-76
2022/03/15 06:58:34;;;;;;;2.27;1.63;;;11.30;1.00;;;;;;5078328;28;20539;-78
2022/03/15 07:01:02;;;;;;;3.83;2.17;;;11.20;1.00;;;;;;5089940;28;20464;-76
2022/03/15 07:03:30;;;;;;;4.70;1.70;;;11.40;1.00;;;;;;5091014;28;20967;-77
2022/03/15 07:06:00;;;;;;;3.43;1.70;;;11.20;1.00;;;;;;5090437;28;20456;-77
2022/03/15 07:08:29;;;;;;;2.43;1.60;;;10.70;1.00;;;;;;5079569;28;20468;-77
2022/03/15 07:10:57;;;;;;;3.23;1.73;;;10.80;1.00;;;;;;5079796;28;20484;-78
2022/03/15 07:13:25;;;;;;;4.00;1.53;;;10.80;1.00;;;;;;5077383;28;20502;-76
2022/03/15 07:15:53;;;;;;;2.07;1.87;;;10.70;1.00;;;;;;5083603;28;20461;-77
2022/03/15 07:18:22;;;;;;;3.93;1.30;;;10.60;1.00;;;;;;5079212;28;20537;-75
2022/03/15 07:20:50;;;;;;;4.77;1.83;;;10.60;1.00;;;;;;5082487;28;20935;-76
2022/03/15 07:23:19;;;;;;;6.37;2.50;;;10.90;2.40;;;;;;5090464;28;20452;-76
2022/03/15 07:25:48;;;;;;;5.07;1.97;;;11.20;2.30;;;;;;5082892;28;20488;-76
2022/03/15 07:28:16;;;;;;;1.47;1.37;;;11.10;2.50;;;;;;5077609;28;21000;-77
2022/03/15 07:30:44;;;;;;;2.97;1.90;;;11.20;2.40;;;;;;5097082;28;20466;-76
2022/03/15 07:33:12;;;;;;;2.37;1.43;;;11.20;2.20;;;;;;5085539;28;20449;-77
2022/03/15 07:35:40;;;;;;;2.90;1.73;;;11.20;1.60;;;;;;5085248;28;20466;-76
2022/03/15 07:38:08;;;;;;;3.90;1.97;;;11.20;1.50;;;;;;5079666;28;20993;-77
2022/03/15 07:40:40;;;;;;;2.70;1.70;;;11.20;2.80;;;;;;5080987;28;20560;-77
2022/03/15 07:43:08;;;;;;;1.90;1.80;;;11.30;3.10;;;;;;5082152;28;20511;-77
2022/03/15 07:45:36;;;;;;;3.80;1.52;;;11.50;3.90;;;;;;5082665;28;20814;-77
2022/03/15 07:48:05;;;;;;;2.20;1.53;;;11.50;4.00;;;;;;5073039;28;20731;-78
2022/03/15 07:50:34;;;;;;;5.17;2.37;;;11.50;2.80;;;;;;5078728;28;20451;-77
2022/03/15 07:53:02;;;;;;;3.17;1.83;;;11.40;1.70;;;;;;5080771;28;20442;-77
2022/03/15 07:55:30;;;;;;;3.00;1.50;;;11.30;1.10;;;;;;5087390;28;20461;-77
2022/03/15 07:58:00;;;;;;;2.40;1.50;;;11.20;2.20;;;;;;5077882;28;20447;-77
2022/03/15 08:00:29;;;;;;;5.33;1.73;;;11.10;1.30;;;;;;5083737;28;20883;-78
2022/03/15 08:02:57;;;;;;;2.20;1.97;;;11.20;2.60;;;;;;5081292;28;20497;-78
2022/03/15 08:05:28;;;;;;;3.70;2.03;;;11.40;3.50;;;;;;5100463;28;20956;-77
2022/03/15 08:07:57;;;;;;;3.20;1.50;;;11.30;2.10;;;;;;5077877;28;20507;-78
2022/03/15 08:10:25;;;;;;;2.87;1.67;;;11.50;4.20;;;;;;5085983;28;20457;-77
2022/03/15 08:12:53;;;;;;;3.43;1.60;;;11.70;5.00;;;;;;5075982;28;20923;-77
2022/03/15 08:15:23;;;;;;;2.50;1.60;;;11.80;4.30;;;;;;5080742;28;20561;-77
2022/03/15 08:17:51;;;;;;;1.50;1.33;;;11.90;4.30;;;;;;5084126;28;20465;-78
2022/03/15 08:20:19;;;;;;;2.83;1.80;;;12.00;4.30;;;;;;5082950;28;20554;-78
2022/03/15 08:22:48;;;;;;;3.23;1.43;;;12.10;4.70;;;;;;5075065;28;20463;-77
2022/03/15 08:25:16;;;;;;;2.03;1.90;;;12.10;4.70;;;;;;5088806;28;20464;-77
2022/03/15 08:27:45;;;;;;;4.77;1.70;;;12.10;6.10;;;;;;5088670;28;20438;-78
2022/03/15 08:30:14;;;;;;;3.37;1.67;;;12.20;5.10;;;;;;5081480;28;21002;-78
2022/03/15 08:32:43;;;;;;;3.13;2.00;;;12.20;4.00;;;;;;5080351;28;20469;-77
2022/03/15 08:35:12;;;;;;;4.10;1.60;;;12.30;5.20;;;;;;5088442;28;20499;-77
2022/03/15 08:37:42;;;;;;;3.23;1.63;;;12.30;5.70;;;;;;5088072;28;20988;-77
2022/03/15 08:40:13;;;;;;;5.87;2.27;;;12.40;6.70;;;;;;5077721;28;20477;-77
2022/03/15 08:42:41;;;;;;;2.77;1.53;;;12.40;7.80;;;;;;5088040;28;20446;-78
2022/03/15 08:45:10;;;;;;;2.70;1.73;;;12.30;8.80;;;;;;5084375;28;20442;-77
2022/03/15 08:47:39;;;;;;;2.10;1.43;;;12.40;9.50;;;;;;5080606;28;20543;-78
2022/03/15 08:50:10;;;;;;;2.73;1.40;;;12.40;11.50;;;;;;5080276;28;20472;-78
2022/03/15 08:52:38;;;;;;;1.50;1.40;;;12.40;13.40;;;;;;5082476;28;20461;-77
2022/03/15 08:55:08;;;;;;;1.43;1.20;;;12.40;13.40;;;;;;5078028;28;20536;-78
2022/03/15 08:57:36;;;;;;;2.20;1.30;;;12.30;13.90;;;;;;5078838;28;21045;-77
2022/03/15 09:00:05;;;;;;;1.50;1.30;;;12.20;17.60;;;;;;5081800;28;20484;-76
2022/03/15 09:02:34;;;;;;;4.80;1.40;;;12.20;20.40;;;;;;5080728;28;20437;-77
2022/03/15 09:05:02;;;;;;;1.90;1.30;;;12.20;25.00;;;;;;5076322;28;20464;-77
2022/03/15 09:07:32;;;;;;;2.80;1.40;;;12.30;28.60;;;;;;5079297;28;20442;-76
2022/03/15 09:10:00;;;;;;;1.30;1.20;;;12.30;35.60;;;;;;5085959;28;20470;-77
2022/03/15 09:12:28;;;;;;;3.00;1.30;;;12.30;43.90;;;;;;5074424;28;20529;-78
2022/03/15 09:14:56;;;;;;;2.57;1.30;;;12.40;51.20;;;;;;5080822;28;20451;-77
2022/03/15 09:17:25;;;;;;;1.43;1.33;;;12.40;74.60;;;;;;5076461;28;20455;-78
2022/03/15 09:20:14;;;;;;;1.67;1.30;;;12.40;88.90;;;;;;5072863;28;20627;-78
2022/03/15 09:22:43;;;;;;;1.20;1.10;;;12.40;80.80;;;;;;5083039;28;20459;-77
2022/03/15 09:25:12;;;;;;;1.50;1.23;;;12.50;99.90;;;;;;5083407;28;20461;-78
2022/03/15 09:27:40;;;;;;;3.50;1.30;;;12.50;99.90;;;;;;5077235;28;20458;-77
2022/03/15 09:30:09;;;;;;;1.77;1.43;;;12.60;99.90;;;;;;5088069;28;20457;-77
2022/03/15 09:32:37;;;;;;;1.30;1.20;;;12.50;99.90;;;;;;5075611;28;20449;-78
2022/03/15 09:35:06;;;;;;;1.60;1.10;;;12.50;99.90;;;;;;5078728;28;20442;-77
2022/03/15 09:37:34;;;;;;;2.00;1.20;;;12.50;99.90;;;;;;5077904;28;20465;-78
2022/03/15 09:40:10;;;;;;;1.57;1.47;;;12.60;99.90;;;;;;5081345;28;20488;-77
2022/03/15 09:42:41;;;;;;;2.40;1.40;;;12.50;99.90;;;;;;5078536;28;20469;-77
2022/03/15 09:45:10;;;;;;;3.20;1.00;;;12.60;99.90;;;;;;5071577;28;20485;-78
2022/03/15 09:47:41;;;;;;;1.40;1.30;;;12.60;99.90;;;;;;5076603;28;20487;-77
2022/03/15 09:50:10;;;;;;;2.57;1.53;;;12.70;99.90;;;;;;5080407;28;20470;-77
2022/03/15 09:52:39;;;;;;;1.40;1.30;;;12.70;99.90;;;;;;5078932;28;20438;-77
2022/03/15 09:55:11;;;;;;;1.10;1.00;;;12.60;99.90;;;;;;5079097;28;20440;-77
2022/03/15 09:57:40;;;;;;;2.03;1.07;;;12.70;99.90;;;;;;5079883;28;20449;-77
2022/03/15 10:00:12;;;;;;;1.23;1.00;;;12.50;99.90;;;;;;5083826;28;20509;-76
2022/03/15 10:02:41;;;;;;;2.90;1.97;;;12.50;99.90;;;;;;5080978;28;20497;-77
2022/03/15 10:05:10;;;;;;;1.33;1.20;;;12.50;99.90;;;;;;5080954;28;20457;-78
2022/03/15 10:07:39;;;;;;;1.90;1.20;;;12.60;99.90;;;;;;5091076;28;20463;-79
2022/03/15 10:10:11;;;;;;;1.20;1.10;;;12.60;99.90;;;;;;5083456;28;20479;-78
2022/03/15 10:12:40;;;;;;;1.70;1.20;;;12.60;99.90;;;;;;5081830;28;21012;-77
2022/03/15 10:15:12;;;;;;;2.97;1.37;;;12.60;99.90;;;;;;5085313;28;20499;-77
2022/03/15 10:17:46;;;;;;;3.87;1.20;;;12.70;99.90;;;;;;5082805;28;20490;-77
2022/03/15 10:20:18;;;;;;;3.80;1.27;;;12.60;99.90;;;;;;5083322;28;20489;-77
2022/03/15 10:22:54;;;;;;;1.93;1.10;;;12.70;99.90;;;;;;5086032;28;20482;-77
2022/03/15 10:25:25;;;;;;;1.33;1.00;;;12.70;99.90;;;;;;5086401;28;21223;-78
2022/03/15 10:27:56;;;;;;;1.47;1.10;;;12.80;99.90;;;;;;5082407;28;20516;-78
2022/03/15 10:30:25;;;;;;;1.20;1.10;;;12.90;99.90;;;;;;5079327;28;20469;-78
2022/03/15 10:32:54;;;;;;;2.40;1.70;;;12.90;99.90;;;;;;5085738;28;20872;-78
2022/03/15 10:35:25;;;;;;;1.30;1.20;;;12.80;99.90;;;;;;5086705;28;20825;-78
2022/03/15 10:37:54;;;;;;;2.67;1.10;;;12.70;99.90;;;;;;5078255;28;20548;-77
2022/03/15 10:40:34;;;;;;;1.67;1.50;;;12.80;99.90;;;;;;5084877;28;20487;-77
2022/03/15 10:43:07;;;;;;;4.73;1.50;;;12.90;99.90;;;;;;5084647;28;20192;-77
2022/03/15 10:45:37;;;;;;;1.20;1.07;;;12.90;99.90;;;;;;5079137;28;20861;-77
2022/03/15 10:48:15;;;;;;;2.03;1.33;;;12.80;99.90;;;;;;5083341;28;20455;-78
2022/03/15 10:50:58;;;;;;;1.73;1.27;;;12.70;99.90;;;;;;5082467;28;20443;-77
2022/03/15 10:53:37;;;;;;;1.23;1.13;;;12.90;99.90;;;;;;5077952;28;20449;-77
2022/03/15 10:56:17;;;;;;;1.60;1.10;;;12.90;99.90;;;;;;5080455;28;20464;-77
2022/03/15 10:58:50;;;;;;;2.50;1.60;;;13.00;99.90;;;;;;5078316;28;20473;-77
2022/03/15 11:01:20;;;;;;;4.43;1.50;;;12.90;99.90;;;;;;5086113;28;20462;-77
2022/03/15 11:03:55;;;;;;;2.20;1.63;;;12.80;99.90;;;;;;5078026;28;20454;-77
2022/03/15 11:06:32;;;;;;;7.10;2.07;;;12.80;99.90;;;;;;5087456;28;20449;-77
2022/03/15 11:09:01;;;;;;;1.37;1.27;;;12.80;99.90;;;;;;5085897;28;20482;-77
2022/03/15 11:11:32;;;;;;;4.80;1.77;;;12.80;99.90;;;;;;5080296;28;20471;-77
2022/03/15 11:14:03;;;;;;;5.60;1.93;;;12.90;99.90;;;;;;5090397;28;20461;-78
2022/03/15 11:16:34;;;;;;;1.87;1.50;;;12.90;99.90;;;;;;5091260;28;20781;-78
2022/03/15 11:19:04;;;;;;;1.63;1.20;;;12.80;99.90;;;;;;5077937;28;21288;-77
2022/03/15 11:21:33;;;;;;;2.00;1.70;;;12.80;99.90;;;;;;5085015;28;20482;-78
2022/03/15 11:24:03;;;;;;;2.27;1.40;;;12.80;99.90;;;;;;5078148;28;20447;-78
2022/03/15 11:26:34;;;;;;;3.50;1.63;;;12.90;99.90;;;;;;5084011;28;20453;-78
2022/03/15 11:29:03;;;;;;;1.73;1.63;;;12.90;99.90;;;;;;5090131;28;20821;-78
2022/03/15 11:31:33;;;;;;;2.03;1.57;;;12.80;99.90;;;;;;5089869;28;20442;-78
2022/03/15 11:34:06;;;;;;;2.17;1.40;;;12.80;99.90;;;;;;5085393;28;20438;-78
2022/03/15 11:36:35;;;;;;;2.23;1.60;;;12.80;99.90;;;;;;5083305;28;20497;-77
2022/03/15 11:39:04;;;;;;;2.00;1.53;;;12.70;99.90;;;;;;5073662;28;20465;-77
2022/03/15 13:11:15;;;;;;;2.07;1.97;;;12.90;99.90;;;;;;4827225;29;20903;-77
2022/03/15 13:13:49;;;;;;;2.00;1.70;;;12.80;99.90;;;;;;4759302;29;21054;-77
2022/03/15 13:16:25;;;;;;;2.50;1.50;;;12.80;99.90;;;;;;4729193;30;20691;-77
2022/03/15 13:18:59;;;;;;;2.27;1.90;;;12.70;99.90;;;;;;4673294;30;20474;-77
2022/03/15 13:21:33;;;;;;;2.53;1.70;;;12.90;99.90;;;;;;4660000;30;20517;-77
2022/03/15 13:24:09;;;;;;;1.90;1.60;;;12.70;99.90;;;;;;4662476;30;20637;-77
2022/03/15 13:26:42;;;;;;;2.37;1.67;;;12.50;99.90;;;;;;4659765;30;20494;-78
2022/03/15 13:29:13;;;;;;;2.50;2.07;;;12.50;99.90;;;;;;4660807;30;20482;-77
2022/03/15 13:31:43;;;;;;;1.40;1.30;;;12.60;99.90;;;;;;4666610;30;20585;-79
2022/03/15 13:34:13;;;;;;;2.70;1.80;;;12.80;99.90;;;;;;4660115;30;21006;-77
2022/03/15 13:36:44;;;;;;;2.83;1.67;;;12.70;99.90;;;;;;4662868;30;20510;-76
2022/03/15 13:39:12;;;;;;;1.70;1.60;;;12.60;99.90;;;;;;4663460;30;20481;-76
2022/03/15 13:41:45;;;;;;;2.13;1.87;;;12.40;99.90;;;;;;4661739;30;20525;-76
2022/03/15 13:44:16;;;;;;;2.50;2.30;;;12.40;99.90;;;;;;4661370;30;20467;-76
2022/03/15 13:46:47;;;;;;;3.17;1.67;;;12.50;99.90;;;;;;4665038;30;20475;-78
2022/03/15 13:49:20;;;;;;;2.33;2.10;;;12.40;99.90;;;;;;4668490;30;20513;-76
2022/03/15 13:51:51;;;;;;;2.07;1.67;;;12.10;1.00;;;;;;4672982;30;20466;-76
2022/03/15 13:54:21;;;;;;;1.90;1.40;;;12.10;1.00;;;;;;4668213;30;20457;-77
2022/03/15 13:56:53;;;;;;;1.87;1.70;;;12.30;99.90;;;;;;4660991;30;20481;-76
2022/03/15 13:59:24;;;;;;;3.73;1.93;;;12.40;99.90;;;;;;4664331;30;20505;-78
2022/03/15 14:01:58;;;;;;;2.10;1.60;;;12.30;99.90;;;;;;4661721;30;20493;-76
2022/03/15 14:04:29;;;;;;;3.53;1.90;;;12.00;1.00;;;;;;4665965;30;20502;-78
2022/03/15 14:07:02;;;;;;;1.63;1.53;;;11.90;1.00;;;;;;4658434;30;20470;-77
2022/03/15 14:09:33;;;;;;;2.27;1.43;;;12.10;1.00;;;;;;4662927;30;20472;-76
2022/03/15 14:12:08;;;;;;;2.30;1.63;;;11.90;1.00;;;;;;4661558;30;20470;-77
2022/03/15 14:14:49;;;;;;;1.50;1.20;;;12.10;1.00;;;;;;4691622;30;21096;-78
2022/03/15 14:17:17;;;;;;;2.97;1.50;;;12.10;1.00;;;;;;4764255;29;21160;-76
2022/03/15 14:19:50;;;;;;;3.20;1.70;;;12.10;1.00;;;;;;4788683;29;20479;-76
2022/03/15 14:22:23;;;;;;;2.30;1.40;;;12.10;1.00;;;;;;4783805;29;20491;-78
2022/03/15 14:24:55;;;;;;;2.00;1.50;;;12.10;99.90;;;;;;4783751;29;20488;-75
2022/03/15 14:27:26;;;;;;;2.77;1.87;;;12.20;1.00;;;;;;4778806;29;20554;-76
2022/03/15 14:29:57;;;;;;;3.13;2.07;;;11.90;1.00;;;;;;4783726;30;20460;-77
2022/03/15 14:32:26;;;;;;;1.67;1.57;;;12.00;99.90;;;;;;4784925;29;20464;-76
2022/03/15 14:34:57;;;;;;;1.80;1.70;;;11.90;1.00;;;;;;4783876;29;21031;-76